createdAt,value
2022-09-03T00:00:44.621Z,2.60
2022-09-03T00:03:23.270Z,3.10
2022-09-03T00:06:13.008Z,3.37
2022-09-03T00:08:51.186Z,2.73
2022-09-03T00:11:30.858Z,2.53
2022-09-03T00:14:06.901Z,2.73
2022-09-03T00:16:49.169Z,2.63
2022-09-03T00:19:24.818Z,2.60
2022-09-03T00:22:01.946Z,2.70
2022-09-03T00:24:40.910Z,2.20
2022-09-03T00:27:20.475Z,3.03
2022-09-03T00:29:57.924Z,2.43
2022-09-03T00:32:35.309Z,2.30
2022-09-03T00:35:14.069Z,2.40
2022-09-03T00:37:44.057Z,2.47
2022-09-03T00:40:35.378Z,2.90
2022-09-03T00:43:21.255Z,2.80
2022-09-03T00:46:05.326Z,2.57
2022-09-03T00:48:51.122Z,2.63
2022-09-03T00:51:37.289Z,2.57
2022-09-03T00:54:21.994Z,2.73
2022-09-03T00:57:06.125Z,2.60
2022-09-03T00:59:51.861Z,2.03
2022-09-03T01:02:33.602Z,2.80
2022-09-03T01:05:14.436Z,3.47
2022-09-03T01:07:58.676Z,2.43
2022-09-03T01:10:39.726Z,2.43
2022-09-03T01:13:17.969Z,2.13
2022-09-03T01:16:06.435Z,2.53
2022-09-03T01:18:49.495Z,2.80
2022-09-03T01:22:04.263Z,2.50
2022-09-03T01:25:15.204Z,2.50
2022-09-03T01:28:13.617Z,2.70
2022-09-03T01:30:49.339Z,2.90
2022-09-03T01:33:31.640Z,2.80
2022-09-03T01:36:19.458Z,2.53
2022-09-03T01:38:59.044Z,2.67
2022-09-03T01:42:03.699Z,3.07
2022-09-03T01:45:06.554Z,2.87
2022-09-03T01:47:54.722Z,2.57
2022-09-03T01:50:42.041Z,2.80
2022-09-03T01:53:30.834Z,2.60
2022-09-03T01:56:22.015Z,2.70
2022-09-03T01:59:03.948Z,2.90
2022-09-03T02:01:44.474Z,2.80
2022-09-03T02:04:23.606Z,2.53
2022-09-03T02:06:54.818Z,2.60
2022-09-03T02:09:24.771Z,2.77
2022-09-03T02:12:11.246Z,2.80
2022-09-03T02:14:41.359Z,2.80
2022-09-03T02:17:14.724Z,2.20
2022-09-03T02:19:45.571Z,3.10
2022-09-03T02:22:16.272Z,3.13
2022-09-03T02:24:46.719Z,2.90
2022-09-03T02:27:16.999Z,3.33
2022-09-03T02:29:47.146Z,2.50
2022-09-03T02:32:19.730Z,2.80
2022-09-03T02:34:49.709Z,2.27
2022-09-03T02:37:22.498Z,3.20
2022-09-03T02:39:53.359Z,3.37
2022-09-03T02:42:23.463Z,2.63
2022-09-03T02:45:00.631Z,2.70
2022-09-03T02:47:36.977Z,2.90
2022-09-03T02:50:07.684Z,2.90
2022-09-03T02:52:37.623Z,2.73
2022-09-03T02:55:09.955Z,2.80
2022-09-03T02:57:39.896Z,3.23
2022-09-03T03:00:12.368Z,3.00
2022-09-03T03:02:45.614Z,3.10
2022-09-03T03:05:38.689Z,3.07
2022-09-03T03:08:09.043Z,3.10
2022-09-03T03:10:38.988Z,2.47
2022-09-03T03:13:08.904Z,4.30
2022-09-03T03:15:39.003Z,3.03
2022-09-03T03:18:14.152Z,3.10
2022-09-03T03:20:48.248Z,3.60
2022-09-03T03:23:18.404Z,3.43
2022-09-03T03:25:48.397Z,3.00
2022-09-03T03:28:20.638Z,3.40
2022-09-03T03:30:51.172Z,2.83
2022-09-03T03:33:23.743Z,3.30
2022-09-03T03:35:53.968Z,4.00
2022-09-03T03:38:24.034Z,3.13
2022-09-03T03:40:54.047Z,3.17
2022-09-03T03:43:24.014Z,3.10
2022-09-03T03:46:00.444Z,3.23
2022-09-03T03:48:33.206Z,3.23
2022-09-03T03:51:04.992Z,3.70
2022-09-03T03:53:35.583Z,3.40
2022-09-03T03:56:09.765Z,3.10
2022-09-03T03:58:44.073Z,3.23
2022-09-03T04:01:17.792Z,3.70
2022-09-03T04:03:51.034Z,2.70
2022-09-03T04:06:23.295Z,3.23
2022-09-03T04:08:53.780Z,3.23
2022-09-03T04:11:26.530Z,3.03
2022-09-03T04:13:57.360Z,4.20
2022-09-03T04:16:29.732Z,3.73
2022-09-03T04:19:02.339Z,2.90
2022-09-03T04:21:33.810Z,3.57
2022-09-03T04:24:03.743Z,3.37
2022-09-03T04:26:36.010Z,2.73
2022-09-03T04:29:09.021Z,3.20
2022-09-03T04:32:01.203Z,2.97
2022-09-03T04:34:33.739Z,3.03
2022-09-03T04:37:03.650Z,3.30
2022-09-03T04:39:33.670Z,2.97
2022-09-03T04:42:03.610Z,2.60
2022-09-03T04:44:34.452Z,3.00
2022-09-03T04:47:04.804Z,2.90
2022-09-03T04:49:37.372Z,3.37
2022-09-03T04:52:07.387Z,3.60
2022-09-03T04:54:37.551Z,4.07
2022-09-03T04:57:07.917Z,4.27
2022-09-03T04:59:37.864Z,3.40
2022-09-03T05:02:08.348Z,2.57
2022-09-03T05:04:40.962Z,2.93
2022-09-03T05:07:11.573Z,3.43
2022-09-03T05:09:41.516Z,2.80
2022-09-03T05:12:13.176Z,3.07
2022-09-03T05:14:43.436Z,4.43
2022-09-03T05:17:13.401Z,3.63
2022-09-03T05:19:45.939Z,3.80
2022-09-03T05:22:21.296Z,3.50
2022-09-03T05:24:51.831Z,3.73
2022-09-03T05:27:21.772Z,3.20
2022-09-03T05:29:51.710Z,3.40
2022-09-03T05:32:21.657Z,3.80
2022-09-03T05:34:54.487Z,3.70
2022-09-03T05:37:24.940Z,3.97
2022-09-03T05:39:54.983Z,3.83
2022-09-03T05:42:25.951Z,3.50
2022-09-03T05:44:56.088Z,3.80
2022-09-03T05:47:26.081Z,3.60
2022-09-03T05:49:58.568Z,3.80
2022-09-03T05:52:28.612Z,3.13
2022-09-03T05:54:58.544Z,4.00
2022-09-03T05:57:29.728Z,3.80
2022-09-03T06:00:00.365Z,4.10
2022-09-03T06:02:30.450Z,3.90
2022-09-03T06:05:03.119Z,4.40
2022-09-03T06:07:34.239Z,4.07
2022-09-03T06:10:04.912Z,4.10
2022-09-03T06:12:35.886Z,4.30
2022-09-03T06:15:06.134Z,4.07
2022-09-03T06:17:36.082Z,4.27
2022-09-03T06:20:10.660Z,4.47
2022-09-03T06:22:40.745Z,3.93
2022-09-03T06:25:12.206Z,4.83
2022-09-03T06:27:42.140Z,4.30
2022-09-03T06:30:13.908Z,4.90
2022-09-03T06:32:47.342Z,4.80
2022-09-03T06:35:20.037Z,4.33
2022-09-03T06:37:52.126Z,4.13
2022-09-03T06:40:23.618Z,4.00
2022-09-03T06:43:02.048Z,4.10
2022-09-03T06:45:32.557Z,3.63
2022-09-03T06:48:02.560Z,3.80
2022-09-03T06:50:35.482Z,4.90
2022-09-03T06:53:06.221Z,4.53
2022-09-03T06:55:40.040Z,4.60
2022-09-03T06:58:10.844Z,4.50
2022-09-03T07:00:40.854Z,4.23
2022-09-03T07:03:10.835Z,4.07
2022-09-03T07:05:43.571Z,4.60
2022-09-03T07:08:13.697Z,3.97
2022-09-03T07:10:43.819Z,4.40
2022-09-03T07:13:13.946Z,4.33
2022-09-03T07:15:44.040Z,4.20
2022-09-03T07:18:14.067Z,4.67
2022-09-03T07:20:46.692Z,4.10
2022-09-03T07:23:16.727Z,4.40
2022-09-03T07:25:46.984Z,4.03
2022-09-03T07:28:17.040Z,4.90
2022-09-03T07:30:47.231Z,4.57
2022-09-03T07:33:17.537Z,3.70
2022-09-03T07:35:50.706Z,4.23
2022-09-03T07:38:24.025Z,4.23
2022-09-03T07:41:01.860Z,4.17
2022-09-03T07:43:36.005Z,3.73
2022-09-03T07:46:07.068Z,3.63
2022-09-03T07:48:37.763Z,4.00
2022-09-03T07:51:11.167Z,4.47
2022-09-03T07:53:41.144Z,3.97
2022-09-03T07:56:13.394Z,5.70
2022-09-03T07:58:44.510Z,4.57
2022-09-03T08:01:17.956Z,4.80
2022-09-03T08:03:51.845Z,5.00
2022-09-03T08:06:26.732Z,4.63
2022-09-03T08:09:04.900Z,4.17
2022-09-03T08:11:39.655Z,4.13
2022-09-03T08:14:12.220Z,4.07
2022-09-03T08:16:44.719Z,3.90
2022-09-03T08:19:14.961Z,3.73
2022-09-03T08:21:47.611Z,4.67
2022-09-03T08:24:21.329Z,4.33
2022-09-03T08:26:52.583Z,4.17
2022-09-03T08:29:24.286Z,4.27
2022-09-03T08:31:54.595Z,4.37
2022-09-03T08:34:25.083Z,3.77
2022-09-03T08:37:01.465Z,3.70
2022-09-03T08:39:31.721Z,4.93
2022-09-03T08:42:20.537Z,3.90
2022-09-03T08:44:58.253Z,4.23
2022-09-03T08:47:37.348Z,4.70
2022-09-03T08:50:19.430Z,3.73
2022-09-03T08:52:59.605Z,3.27
2022-09-03T08:55:34.498Z,4.70
2022-09-03T08:58:14.190Z,4.27
2022-09-03T09:01:01.362Z,4.47
2022-09-03T09:03:47.243Z,3.90
2022-09-03T09:06:26.427Z,3.77
2022-09-03T09:09:20.583Z,4.20
2022-09-03T09:12:04.303Z,4.50
2022-09-03T09:14:43.325Z,3.80
2022-09-03T09:17:34.513Z,4.27
2022-09-03T09:20:12.565Z,4.50
2022-09-03T09:22:47.616Z,4.60
2022-09-03T09:25:24.408Z,5.70
2022-09-03T09:28:01.635Z,4.57
2022-09-03T09:30:34.712Z,4.30
2022-09-03T09:33:04.962Z,4.23
2022-09-03T09:35:35.154Z,4.33
2022-09-03T09:38:05.320Z,5.27
2022-09-03T09:40:44.860Z,4.30
2022-09-03T09:43:21.058Z,4.80
2022-09-03T09:45:54.100Z,5.13
2022-09-03T09:48:31.660Z,4.37
2022-09-03T09:51:12.523Z,4.23
2022-09-03T09:53:45.002Z,4.83
2022-09-03T09:56:28.418Z,4.70
2022-09-03T09:59:08.006Z,3.73
2022-09-03T10:01:41.917Z,4.57
2022-09-03T10:04:15.079Z,4.73
2022-09-03T10:06:59.646Z,3.83
2022-09-03T10:09:32.722Z,4.77
2022-09-03T10:12:19.735Z,4.70
2022-09-03T10:14:58.391Z,4.80
2022-09-03T10:17:39.634Z,4.83
2022-09-03T10:20:29.535Z,4.90
2022-09-03T10:23:06.181Z,4.37
2022-09-03T10:25:47.940Z,4.70
2022-09-03T10:28:23.386Z,4.67
2022-09-03T10:31:21.547Z,4.90
2022-09-03T10:33:59.473Z,4.80
2022-09-03T10:36:54.590Z,5.30
2022-09-03T10:39:42.671Z,4.93
2022-09-03T10:42:38.258Z,5.33
2022-09-03T10:45:22.285Z,4.30
2022-09-03T10:48:34.991Z,5.13
2022-09-03T10:51:09.306Z,4.87
2022-09-03T10:54:13.781Z,5.70
2022-09-03T10:56:57.184Z,5.10
2022-09-03T11:00:05.957Z,5.13
2022-09-03T11:03:28.443Z,5.23
2022-09-03T11:06:07.672Z,5.30
2022-09-03T11:08:46.336Z,5.83
2022-09-03T11:11:26.625Z,4.93
2022-09-03T11:14:05.334Z,4.53
2022-09-03T11:16:41.601Z,4.77
2022-09-03T11:19:20.262Z,5.03
2022-09-03T11:21:53.874Z,4.90
2022-09-03T11:24:28.026Z,5.03
2022-09-03T11:27:08.634Z,5.00
2022-09-03T11:29:52.619Z,5.20
2022-09-03T11:32:31.980Z,5.43
2022-09-03T11:35:04.598Z,5.03
2022-09-03T11:37:35.239Z,4.80
2022-09-03T11:40:17.503Z,5.10
2022-09-03T11:42:48.968Z,4.90
2022-09-03T11:45:38.989Z,5.00
2022-09-03T11:48:39.776Z,5.20
2022-09-03T11:51:35.848Z,5.10
2022-09-03T11:54:10.439Z,4.03
2022-09-03T11:56:40.450Z,5.40
2022-09-03T11:59:22.405Z,5.27
2022-09-03T12:02:00.754Z,4.90
2022-09-03T12:04:43.638Z,5.20
2022-09-03T12:07:48.605Z,4.90
2022-09-03T12:10:38.493Z,6.43
2022-09-03T12:13:28.739Z,5.93
2022-09-03T12:16:28.510Z,6.97
2022-09-03T12:19:06.925Z,7.43
2022-09-03T12:21:44.459Z,6.83
2022-09-03T12:24:17.331Z,5.80
2022-09-03T12:26:47.495Z,2.60
2022-09-03T12:29:28.201Z,2.60
2022-09-03T12:32:11.939Z,2.63
2022-09-03T12:34:41.897Z,2.40
2022-09-03T12:40:26.382Z,2.63
2022-09-03T12:43:37.245Z,3.10
2022-09-03T12:48:44.021Z,2.43
2022-09-03T12:54:07.655Z,2.37
2022-09-03T12:56:42.649Z,3.13
2022-09-03T12:59:19.644Z,3.70
2022-09-03T13:01:54.810Z,3.10
2022-09-03T13:04:29.522Z,3.10
2022-09-03T13:07:08.127Z,3.50
2022-09-03T13:09:42.613Z,3.60
2022-09-03T13:12:33.628Z,3.93
2022-09-03T13:15:12.127Z,3.83
2022-09-03T13:18:28.211Z,3.70
2022-09-03T13:21:18.820Z,2.90
2022-09-03T13:24:19.555Z,2.90
2022-09-03T13:27:06.129Z,3.53
2022-09-03T13:30:00.624Z,3.10
2022-09-03T13:32:42.743Z,3.10
2022-09-03T13:35:24.774Z,3.47
2022-09-03T13:38:07.595Z,2.90
2022-09-03T13:40:49.934Z,2.60
2022-09-03T13:43:35.063Z,2.60
2022-09-03T13:46:13.655Z,2.67
2022-09-03T13:48:59.311Z,3.10
2022-09-03T13:51:34.138Z,2.37
2022-09-03T13:54:31.012Z,3.30
2022-09-03T13:57:10.593Z,2.70
2022-09-03T13:59:54.296Z,2.43
2022-09-03T14:02:48.177Z,2.70
2022-09-03T14:05:39.835Z,2.20
2022-09-03T14:08:23.975Z,2.27
2022-09-03T14:11:16.378Z,2.00
2022-09-03T14:14:04.926Z,2.00
2022-09-03T14:16:45.057Z,1.87
2022-09-03T14:19:24.862Z,1.97
2022-09-03T14:22:02.531Z,1.40
2022-09-03T14:24:46.532Z,1.60
2022-09-03T14:27:26.110Z,1.60
2022-09-03T14:30:02.927Z,1.80
2022-09-03T14:32:46.016Z,1.70
2022-09-03T14:35:41.331Z,1.70
2022-09-03T14:38:48.878Z,1.93
2022-09-03T14:41:45.147Z,1.40
2022-09-03T14:44:44.510Z,1.77
2022-09-03T14:47:36.816Z,1.90
2022-09-03T14:50:25.461Z,2.27
2022-09-03T14:53:31.319Z,1.73
2022-09-03T14:56:20.726Z,1.87
2022-09-03T14:59:12.206Z,2.10
2022-09-03T15:01:42.561Z,1.60
2022-09-03T15:04:49.402Z,2.40
2022-09-03T15:07:35.530Z,1.70
2022-09-03T15:10:20.538Z,1.90
2022-09-03T15:12:55.336Z,2.10
2022-09-03T15:15:33.715Z,1.47
2022-09-03T15:18:20.898Z,1.80
2022-09-03T15:20:54.812Z,1.60
2022-09-03T15:23:54.710Z,1.50
2022-09-03T15:26:59.348Z,1.47
2022-09-03T15:29:44.423Z,1.70
2022-09-03T15:32:33.325Z,1.57
2022-09-03T15:35:11.893Z,1.70
2022-09-03T15:37:50.086Z,1.60
2022-09-03T15:40:33.852Z,1.77
2022-09-03T15:43:12.731Z,1.63
2022-09-03T15:45:58.677Z,1.63
2022-09-03T15:48:48.010Z,2.30
2022-09-03T15:51:28.120Z,1.83
2022-09-03T15:54:04.098Z,1.60
2022-09-03T15:56:47.176Z,2.33
2022-09-03T15:59:26.134Z,2.70
2022-09-03T16:02:11.007Z,1.80
2022-09-03T16:05:08.531Z,1.67
2022-09-03T16:08:06.144Z,2.13
2022-09-03T16:10:52.083Z,2.43
2022-09-03T16:13:42.285Z,1.97
2022-09-03T16:16:18.795Z,2.07
2022-09-03T16:19:03.964Z,2.70
2022-09-03T16:21:46.132Z,2.10
2022-09-03T16:24:25.199Z,2.10
2022-09-03T16:27:03.005Z,2.10
2022-09-03T16:29:35.731Z,2.20
2022-09-03T16:32:30.194Z,2.20
2022-09-03T16:35:19.786Z,2.30
2022-09-03T16:38:12.614Z,2.40
2022-09-03T16:40:52.298Z,1.87
2022-09-03T16:43:41.021Z,2.50
2022-09-03T16:46:28.354Z,3.67
2022-09-03T16:49:37.375Z,2.93
2022-09-03T16:52:19.499Z,3.40
2022-09-03T16:55:10.061Z,2.17
2022-09-03T16:58:01.444Z,2.70
2022-09-03T17:00:51.924Z,2.43
2022-09-03T17:04:06.422Z,4.97
2022-09-03T17:07:12.882Z,3.17
2022-09-03T17:10:05.815Z,3.03
2022-09-03T17:12:46.227Z,5.67
2022-09-03T17:15:41.611Z,4.60
2022-09-03T17:18:37.969Z,2.90
2022-09-03T17:21:33.144Z,2.90
2022-09-03T17:24:38.200Z,2.73
2022-09-03T17:27:46.433Z,2.63
2022-09-03T17:30:25.737Z,2.50
2022-09-03T17:33:40.178Z,2.70
2022-09-03T17:36:18.042Z,3.00
2022-09-03T17:39:19.681Z,3.30
2022-09-03T17:41:55.525Z,3.63
2022-09-03T17:44:49.673Z,3.80
2022-09-03T17:48:00.802Z,4.60
2022-09-03T17:50:48.330Z,3.30
2022-09-03T17:53:26.955Z,3.50
2022-09-03T17:56:04.046Z,3.17
2022-09-03T17:58:41.371Z,2.97
2022-09-03T18:01:20.480Z,3.43
2022-09-03T18:03:56.616Z,3.97
2022-09-03T18:06:38.591Z,3.37
2022-09-03T18:09:15.230Z,3.27
2022-09-03T18:11:52.649Z,3.73
2022-09-03T18:14:31.441Z,3.67
2022-09-03T18:17:08.202Z,3.73
2022-09-03T18:19:58.710Z,5.53
2022-09-03T18:22:54.436Z,3.93
2022-09-03T18:25:42.840Z,4.00
2022-09-03T18:28:33.138Z,3.50
2022-09-03T18:31:15.742Z,3.73
2022-09-03T18:33:58.236Z,4.00
2022-09-03T18:36:41.816Z,3.87
2022-09-03T18:39:34.999Z,4.13
2022-09-03T18:42:32.727Z,4.50
2022-09-03T18:45:47.833Z,5.77
2022-09-03T18:48:44.537Z,4.93
2022-09-03T18:51:44.685Z,5.03
2022-09-03T18:55:07.510Z,3.90
2022-09-03T18:58:10.101Z,4.83
2022-09-03T19:01:04.711Z,5.90
2022-09-03T19:04:05.756Z,9.30
2022-09-03T19:07:03.000Z,5.23
2022-09-03T19:10:05.690Z,5.10
2022-09-03T19:13:09.722Z,4.80
2022-09-03T19:16:07.673Z,5.77
2022-09-03T19:19:24.396Z,3.70
2022-09-03T19:22:13.028Z,5.67
2022-09-03T19:24:58.147Z,7.00
2022-09-03T19:27:59.266Z,4.70
2022-09-03T19:30:55.504Z,5.30
2022-09-03T19:33:51.847Z,4.30
2022-09-03T19:36:44.519Z,5.73
2022-09-03T19:39:46.802Z,4.67
2022-09-03T19:42:44.509Z,5.10
2022-09-03T19:45:39.549Z,4.70
2022-09-03T19:48:35.387Z,5.10
2022-09-03T19:51:27.435Z,5.00
2022-09-03T19:54:13.498Z,6.17
2022-09-03T19:56:57.079Z,5.70
2022-09-03T19:59:53.371Z,5.20
2022-09-03T20:02:36.050Z,6.40
2022-09-03T20:05:26.865Z,5.60
2022-09-03T20:08:13.187Z,6.70
2022-09-03T20:10:48.166Z,5.50
2022-09-03T20:13:22.556Z,5.87
2022-09-03T20:16:07.553Z,6.03
2022-09-03T20:18:52.760Z,5.87
2022-09-03T20:21:32.808Z,6.53
2022-09-03T20:24:19.848Z,5.13
2022-09-03T20:27:06.873Z,5.73
2022-09-03T20:29:59.295Z,7.43
2022-09-03T20:33:03.716Z,10.50
2022-09-03T20:35:50.924Z,7.40
2022-09-03T20:38:55.771Z,7.27
2022-09-03T20:41:37.996Z,7.07
2022-09-03T20:44:36.681Z,7.10
2022-09-03T20:47:31.768Z,8.00
2022-09-03T20:50:23.682Z,7.53
2022-09-03T20:53:06.315Z,8.87
2022-09-03T20:55:42.731Z,6.47
2022-09-03T20:58:26.322Z,5.80
2022-09-03T21:01:07.026Z,6.93
2022-09-03T21:03:52.506Z,15.70
2022-09-03T21:06:39.140Z,10.17
2022-09-03T21:09:29.018Z,8.60
2022-09-03T21:12:15.623Z,9.50
2022-09-03T21:14:57.492Z,11.47
2022-09-03T21:17:55.136Z,11.07
2022-09-03T21:20:45.346Z,8.93
2022-09-03T21:23:28.831Z,7.33
2022-09-03T21:26:08.554Z,6.70
2022-09-03T21:28:43.282Z,10.60
2022-09-03T21:31:24.584Z,12.50
2022-09-03T21:33:58.571Z,10.30
2022-09-03T21:36:33.205Z,10.17
2022-09-03T21:39:12.698Z,9.13
2022-09-03T21:41:52.606Z,7.60
2022-09-03T21:44:49.724Z,10.13
2022-09-03T21:47:21.851Z,9.83
2022-09-03T21:50:07.706Z,14.20
2022-09-03T21:52:48.958Z,12.70
2022-09-03T21:55:41.971Z,17.93
2022-09-03T21:58:33.275Z,15.90
2022-09-03T22:01:14.958Z,15.73
2022-09-03T22:03:45.706Z,11.17
2022-09-03T22:06:25.973Z,12.50
2022-09-03T22:09:07.559Z,10.63
2022-09-03T22:11:53.274Z,7.70
2022-09-03T22:14:24.914Z,7.70
2022-09-03T22:17:05.196Z,6.53
2022-09-03T22:19:40.237Z,6.53
2022-09-03T22:22:19.786Z,8.00
2022-09-03T22:25:04.897Z,6.73
2022-09-03T22:27:49.482Z,5.90
2022-09-03T22:30:24.454Z,6.73
2022-09-03T22:33:08.335Z,9.23
2022-09-03T22:36:16.295Z,9.17
2022-09-03T22:39:20.037Z,8.00
2022-09-03T22:42:30.862Z,6.50
2022-09-03T22:45:28.031Z,8.90
2022-09-03T22:48:23.765Z,10.10
2022-09-03T22:51:00.015Z,8.77
2022-09-03T22:53:54.680Z,8.30
2022-09-03T22:56:25.458Z,7.43
2022-09-03T22:59:01.982Z,6.53
2022-09-03T23:01:42.685Z,7.97
2022-09-03T23:04:24.982Z,8.17
2022-09-03T23:07:05.504Z,6.80
2022-09-03T23:09:42.422Z,9.77
2022-09-03T23:12:20.296Z,10.60
2022-09-03T23:14:56.597Z,8.40
2022-09-03T23:22:48.203Z,8.47
2022-09-03T23:25:24.506Z,7.07
2022-09-03T23:28:03.779Z,6.80
2022-09-03T23:30:33.878Z,7.80
2022-09-03T23:33:06.542Z,8.30
2022-09-03T23:35:48.995Z,6.50
2022-09-03T23:38:34.408Z,8.23
2022-09-03T23:41:10.625Z,6.97
2022-09-03T23:44:18.731Z,9.10
2022-09-03T23:47:08.056Z,7.90
2022-09-03T23:49:56.255Z,8.43
2022-09-03T23:53:11.959Z,9.50
2022-09-03T23:56:05.186Z,8.77
2022-09-03T23:58:55.615Z,9.33
